createdAt,value
2019-01-14T00:00:06.209Z,954.61
2019-01-14T00:01:16.126Z,954.62
2019-01-14T00:02:26.043Z,954.46
2019-01-14T00:03:36.052Z,954.48
2019-01-14T00:04:45.963Z,954.66
2019-01-14T00:06:09.921Z,954.5
2019-01-14T00:07:20.043Z,954.44
2019-01-14T00:08:29.954Z,954.57
2019-01-14T00:09:39.969Z,954.41
2019-01-14T00:10:49.897Z,954.75
2019-01-14T00:11:59.808Z,954.72
2019-01-14T00:13:09.718Z,954.6
2019-01-14T00:14:19.738Z,954.78
2019-01-14T00:15:29.656Z,954.73
2019-01-14T00:16:39.568Z,954.65
2019-01-14T00:17:49.475Z,954.61
2019-01-14T00:18:59.389Z,954.76
2019-01-14T00:20:09.398Z,954.63
2019-01-14T00:21:19.305Z,954.78
2019-01-14T00:22:29.227Z,954.9
2019-01-14T00:23:39.140Z,954.78
2019-01-14T00:24:49.051Z,954.93
2019-01-14T00:25:59.060Z,954.81
2019-01-14T00:27:08.733Z,954.71
2019-01-14T00:28:18.645Z,955.16
2019-01-14T00:29:28.566Z,954.92
2019-01-14T00:30:38.478Z,954.82
2019-01-14T00:31:48.493Z,955.06
2019-01-14T00:32:58.418Z,954.99
2019-01-14T00:34:08.335Z,954.75
2019-01-14T00:35:18.245Z,954.8
2019-01-14T00:36:28.157Z,954.78
2019-01-14T00:37:38.212Z,954.81
2019-01-14T00:38:48.145Z,954.83
2019-01-14T00:39:58.053Z,954.82
2019-01-14T00:41:07.709Z,954.83
2019-01-14T00:42:17.619Z,954.97
2019-01-14T00:43:27.634Z,954.96
2019-01-14T00:44:37.543Z,954.99
2019-01-14T00:45:47.449Z,954.84
2019-01-14T00:46:57.360Z,955.16
2019-01-14T00:48:07.270Z,955.11
2019-01-14T00:49:17.530Z,955.2
2019-01-14T00:50:27.457Z,955.12
2019-01-14T00:51:37.366Z,955.18
2019-01-14T00:52:47.281Z,955.16
2019-01-14T00:53:57.191Z,955.15
2019-01-14T00:55:07.205Z,955.14
2019-01-14T00:56:17.120Z,955.21
2019-01-14T00:57:27.042Z,955.18
2019-01-14T00:58:36.961Z,955.34
2019-01-14T00:59:46.867Z,955.13
2019-01-14T01:00:56.776Z,955.06
2019-01-14T01:02:06.431Z,955.15
2019-01-14T01:03:16.342Z,955.21
2019-01-14T01:04:26.258Z,955.22
2019-01-14T01:05:36.174Z,955.17
2019-01-14T01:06:46.183Z,955.26
2019-01-14T01:07:56.090Z,955.29
2019-01-14T01:09:06.004Z,955.14
2019-01-14T01:10:15.908Z,955.22
2019-01-14T01:11:25.819Z,955.3
2019-01-14T01:12:35.779Z,955.18
2019-01-14T01:13:46.572Z,955.24
2019-01-14T01:14:56.485Z,955.53
2019-01-14T01:16:06.400Z,955.33
2019-01-14T01:17:16.309Z,955.38
2019-01-14T01:18:26.269Z,955.38
2019-01-14T01:19:36.209Z,955.27
2019-01-14T01:20:46.115Z,955.36
2019-01-14T01:21:56.027Z,955.32
2019-01-14T01:23:05.934Z,955.31
2019-01-14T01:24:15.902Z,955.33
2019-01-14T01:25:25.811Z,955.39
2019-01-14T01:26:35.719Z,955.47
2019-01-14T01:27:45.636Z,955.54
2019-01-14T01:28:55.546Z,955.54
2019-01-14T01:30:05.507Z,955.66
2019-01-14T01:31:15.422Z,955.55
2019-01-14T01:32:25.331Z,955.69
2019-01-14T01:33:35.247Z,955.61
2019-01-14T01:34:45.162Z,955.58
2019-01-14T01:35:55.123Z,955.63
2019-01-14T01:37:05.028Z,955.63
2019-01-14T01:38:15.834Z,955.51
2019-01-14T01:39:25.742Z,955.59
2019-01-14T01:40:35.651Z,955.61
2019-01-14T01:41:45.556Z,955.62
2019-01-14T01:42:55.473Z,955.64
2019-01-14T01:44:05.379Z,955.69
2019-01-14T01:45:15.292Z,955.76
2019-01-14T01:46:25.205Z,955.72
2019-01-14T01:47:35.210Z,955.71
2019-01-14T01:48:45.115Z,955.66
2019-01-14T01:49:55.027Z,955.59
2019-01-14T01:51:04.940Z,955.56
2019-01-14T01:52:14.854Z,955.51
2019-01-14T01:53:24.867Z,955.52
2019-01-14T01:54:34.781Z,955.62
2019-01-14T01:55:44.694Z,955.54
2019-01-14T01:56:54.611Z,955.5
2019-01-14T01:58:04.520Z,955.48
2019-01-14T01:59:14.544Z,955.45
2019-01-14T02:00:24.458Z,955.55
2019-01-14T02:01:34.381Z,955.48
2019-01-14T02:02:44.297Z,955.53
2019-01-14T02:03:54.213Z,955.43
2019-01-14T02:05:04.221Z,955.59
2019-01-14T02:06:14.134Z,955.59
2019-01-14T02:07:23.798Z,955.6
2019-01-14T02:08:33.707Z,955.47
2019-01-14T02:09:43.615Z,955.56
2019-01-14T02:10:53.573Z,955.47
2019-01-14T02:12:03.482Z,955.46
2019-01-14T02:13:13.395Z,955.69
2019-01-14T02:14:23.312Z,955.42
2019-01-14T02:15:33.223Z,955.51
2019-01-14T02:16:43.190Z,955.61
2019-01-14T02:17:53.103Z,955.48
2019-01-14T02:19:03.019Z,955.66
2019-01-14T02:20:12.934Z,955.72
2019-01-14T02:21:22.849Z,955.54
2019-01-14T02:22:32.756Z,955.55
2019-01-14T02:23:42.658Z,955.7
2019-01-14T02:24:52.567Z,955.58
2019-01-14T02:26:02.479Z,955.64
2019-01-14T02:27:12.187Z,955.57
2019-01-14T02:28:22.193Z,955.59
2019-01-14T02:29:31.870Z,955.58
2019-01-14T02:30:41.779Z,955.67
2019-01-14T02:31:51.703Z,955.6
2019-01-14T02:33:01.630Z,955.77
2019-01-14T02:34:11.578Z,955.62
2019-01-14T02:35:21.492Z,955.7
2019-01-14T02:36:31.153Z,955.72
2019-01-14T02:37:51.152Z,955.66
2019-01-14T02:39:01.060Z,955.82
2019-01-14T02:40:11.074Z,955.69
2019-01-14T02:41:20.989Z,955.74
2019-01-14T02:42:30.907Z,955.61
2019-01-14T02:43:40.825Z,955.59
2019-01-14T02:44:50.735Z,955.58
2019-01-14T02:46:00.755Z,955.63
2019-01-14T02:47:10.416Z,955.58
2019-01-14T02:48:20.323Z,955.63
2019-01-14T02:49:30.235Z,955.59
2019-01-14T02:50:40.143Z,955.62
2019-01-14T02:51:50.163Z,955.7
2019-01-14T02:53:00.083Z,955.7
2019-01-14T02:54:10.004Z,955.68
2019-01-14T02:55:19.919Z,955.82
2019-01-14T02:56:29.581Z,955.85
2019-01-14T02:57:39.546Z,955.84
2019-01-14T02:58:49.465Z,955.83
2019-01-14T02:59:59.377Z,955.88
2019-01-14T03:01:09.304Z,955.8
2019-01-14T03:02:19.223Z,955.85
2019-01-14T03:03:29.294Z,955.96
2019-01-14T03:04:39.210Z,955.79
2019-01-14T03:05:49.115Z,955.96
2019-01-14T03:06:59.034Z,955.96
2019-01-14T03:08:08.693Z,956.03
2019-01-14T03:09:18.705Z,955.94
2019-01-14T03:10:28.619Z,956.05
2019-01-14T03:11:38.533Z,956.1
2019-01-14T03:12:48.473Z,956.11
2019-01-14T03:13:58.448Z,956.1
2019-01-14T03:15:08.473Z,956.15
2019-01-14T03:16:18.394Z,956.28
2019-01-14T03:17:28.322Z,956.26
2019-01-14T03:18:38.243Z,956.17
2019-01-14T03:19:48.156Z,956.23
2019-01-14T03:20:58.115Z,956.24
2019-01-14T03:22:08.025Z,956.33
2019-01-14T03:23:17.939Z,956.29
2019-01-14T03:24:27.606Z,956.26
2019-01-14T03:25:37.515Z,956.26
2019-01-14T03:26:47.530Z,956.25
2019-01-14T03:27:57.448Z,956.3
2019-01-14T03:29:07.357Z,956.31
2019-01-14T03:30:17.278Z,956.31
2019-01-14T03:31:27.403Z,956.35
2019-01-14T03:32:37.559Z,956.36
2019-01-14T03:33:47.526Z,956.46
2019-01-14T03:34:57.435Z,956.5
2019-01-14T03:36:07.341Z,956.41
2019-01-14T03:37:17.305Z,956.35
2019-01-14T03:38:27.222Z,956.39
2019-01-14T03:39:37.140Z,956.41
2019-01-14T03:40:47.057Z,956.78
2019-01-14T03:41:56.970Z,956.32
2019-01-14T03:43:06.892Z,956.6
2019-01-14T03:44:16.848Z,956.56
2019-01-14T03:45:26.758Z,956.65
2019-01-14T03:46:36.669Z,956.67
2019-01-14T03:47:46.581Z,956.78
2019-01-14T03:48:56.487Z,956.73
2019-01-14T03:50:06.511Z,956.76
2019-01-14T03:51:16.452Z,956.7
2019-01-14T03:52:26.377Z,956.82
2019-01-14T03:53:36.291Z,956.81
2019-01-14T03:54:46.202Z,956.86
2019-01-14T03:55:56.177Z,956.91
2019-01-14T03:57:06.993Z,956.83
2019-01-14T03:58:16.982Z,956.83
2019-01-14T03:59:26.893Z,956.94
2019-01-14T04:00:36.806Z,956.92
2019-01-14T04:01:46.768Z,956.86
2019-01-14T04:02:56.680Z,956.94
2019-01-14T04:04:06.623Z,956.97
2019-01-14T04:05:16.543Z,956.98
2019-01-14T04:06:26.448Z,957.04
2019-01-14T04:07:36.406Z,956.99
2019-01-14T04:08:46.335Z,956.99
2019-01-14T04:09:56.245Z,956.98
2019-01-14T04:11:06.217Z,957
2019-01-14T04:12:16.131Z,956.99
2019-01-14T04:13:26.107Z,957
2019-01-14T04:14:36.020Z,957.05
2019-01-14T04:15:45.955Z,956.99
2019-01-14T04:16:55.869Z,956.98
2019-01-14T04:18:05.796Z,957.13
2019-01-14T04:19:15.830Z,956.99
2019-01-14T04:20:25.749Z,957.03
2019-01-14T04:21:35.657Z,957.06
2019-01-14T04:22:45.570Z,957.21
2019-01-14T04:23:55.479Z,956.93
2019-01-14T04:25:05.493Z,956.91
2019-01-14T04:26:15.425Z,956.93
2019-01-14T04:27:25.334Z,956.9
2019-01-14T04:28:35.242Z,956.82
2019-01-14T04:29:45.153Z,956.96
2019-01-14T04:30:55.128Z,956.97
2019-01-14T04:32:05.055Z,956.92
2019-01-14T04:33:14.987Z,957.02
2019-01-14T04:34:24.904Z,956.95
2019-01-14T04:35:34.822Z,956.92
2019-01-14T04:36:44.788Z,956.96
2019-01-14T04:37:54.701Z,956.9
2019-01-14T04:39:04.641Z,956.89
2019-01-14T04:40:14.550Z,956.88
2019-01-14T04:41:24.417Z,956.92
2019-01-14T04:42:34.496Z,956.9
2019-01-14T04:43:44.421Z,956.83
2019-01-14T04:44:54.327Z,956.76
2019-01-14T04:46:04.250Z,956.77
2019-01-14T04:47:14.181Z,956.75
2019-01-14T04:48:24.196Z,956.64
2019-01-14T04:49:34.953Z,956.62
2019-01-14T04:50:44.874Z,956.56
2019-01-14T04:51:54.785Z,956.55
2019-01-14T04:53:04.505Z,956.51
2019-01-14T04:54:14.533Z,956.58
2019-01-14T04:55:24.514Z,956.69
2019-01-14T04:56:34.432Z,956.42
2019-01-14T04:57:44.347Z,956.47
2019-01-14T04:58:54.318Z,956.38
2019-01-14T05:00:04.327Z,956.43
2019-01-14T05:01:14.251Z,956.32
2019-01-14T05:02:24.172Z,956.41
2019-01-14T05:03:34.108Z,956.45
2019-01-14T05:04:45.204Z,956.53
2019-01-14T05:05:55.220Z,956.43
2019-01-14T05:07:05.171Z,956.34
2019-01-14T05:08:15.096Z,956.44
2019-01-14T05:09:25.008Z,956.31
2019-01-14T05:10:35.010Z,956.34
2019-01-14T05:11:44.924Z,956.17
2019-01-14T05:12:54.588Z,956.3
2019-01-14T05:14:04.505Z,956.18
2019-01-14T05:15:14.420Z,956.29
2019-01-14T05:16:24.334Z,956.28
2019-01-14T05:17:34.345Z,956.19
2019-01-14T05:18:44.250Z,956.12
2019-01-14T05:19:54.161Z,956.29
2019-01-14T05:21:04.082Z,956.27
2019-01-14T05:22:14.005Z,956.3
2019-01-14T05:23:24.021Z,956.44
2019-01-14T05:24:33.933Z,956.19
2019-01-14T05:25:43.853Z,956.29
2019-01-14T05:26:53.764Z,956.39
2019-01-14T05:28:03.687Z,956.28
2019-01-14T05:29:13.697Z,956.22
2019-01-14T05:30:23.624Z,956.24
2019-01-14T05:31:33.290Z,956.46
2019-01-14T05:32:44.809Z,956.4
2019-01-14T05:33:54.729Z,956.3
2019-01-14T05:35:04.688Z,956.2
2019-01-14T05:36:14.621Z,956.08
2019-01-14T05:37:24.530Z,956.05
2019-01-14T05:38:40.396Z,956.04
2019-01-14T05:39:50.308Z,955.98
2019-01-14T05:41:00.280Z,956.06
2019-01-14T05:42:10.202Z,955.98
2019-01-14T05:43:20.118Z,955.96
2019-01-14T05:44:30.031Z,955.97
2019-01-14T05:45:40.001Z,955.97
2019-01-14T05:46:49.910Z,955.95
2019-01-14T05:47:59.871Z,955.99
2019-01-14T05:49:09.793Z,956.07
2019-01-14T05:50:19.715Z,955.88
2019-01-14T05:51:29.629Z,955.86
2019-01-14T05:52:40.040Z,955.85
2019-01-14T05:53:50.831Z,955.8
2019-01-14T05:55:00.842Z,955.87
2019-01-14T05:56:10.758Z,955.75
2019-01-14T05:57:20.671Z,955.71
2019-01-14T05:58:30.637Z,955.7
2019-01-14T05:59:40.602Z,955.67
2019-01-14T06:00:50.513Z,955.6
2019-01-14T06:02:00.175Z,955.65
2019-01-14T06:03:10.086Z,955.71
2019-01-14T06:04:19.802Z,955.84
2019-01-14T06:05:29.461Z,955.59
2019-01-14T06:06:39.366Z,955.96
2019-01-14T06:07:49.273Z,955.93
2019-01-14T06:08:59.183Z,956.02
2019-01-14T06:10:09.146Z,955.94
2019-01-14T06:11:19.094Z,956.03
2019-01-14T06:12:29.013Z,956.01
2019-01-14T06:13:38.925Z,955.97
2019-01-14T06:14:48.840Z,956.38
2019-01-14T06:15:58.562Z,956.04
2019-01-14T06:17:08.480Z,956.07
2019-01-14T06:18:18.396Z,956.09
2019-01-14T06:19:28.312Z,956.3
2019-01-14T06:20:38.225Z,956.13
2019-01-14T06:21:48.198Z,956.41
2019-01-14T06:22:58.118Z,956.54
2019-01-14T06:24:08.040Z,956.64
2019-01-14T06:25:17.947Z,956.68
2019-01-14T06:26:27.883Z,956.99
2019-01-14T06:27:37.840Z,956.63
2019-01-14T06:28:47.754Z,956.81
2019-01-14T06:29:57.660Z,956.48
2019-01-14T06:31:07.617Z,956.25
2019-01-14T06:32:17.529Z,956.33
2019-01-14T06:33:27.490Z,956.59
2019-01-14T06:34:37.406Z,956.24
2019-01-14T06:35:47.074Z,956.32
2019-01-14T06:36:56.986Z,956.32
2019-01-14T06:38:06.945Z,956.11
2019-01-14T06:39:16.959Z,956.14
2019-01-14T06:40:26.675Z,956.07
2019-01-14T06:41:37.246Z,956.03
2019-01-14T06:42:47.201Z,956
2019-01-14T06:43:56.868Z,956.15
2019-01-14T06:45:06.881Z,955.97
2019-01-14T06:46:16.796Z,955.99
2019-01-14T06:47:26.706Z,956
2019-01-14T06:48:36.616Z,955.92
2019-01-14T06:49:46.524Z,956.02
2019-01-14T06:50:56.237Z,956.16
2019-01-14T06:52:06.158Z,956.04
2019-01-14T06:53:15.819Z,956.09
2019-01-14T06:54:25.782Z,956.12
2019-01-14T06:55:37.094Z,956.22
2019-01-14T06:56:47.117Z,956.18
2019-01-14T06:57:56.799Z,956.35
2019-01-14T06:59:06.711Z,956.9
2019-01-14T07:00:16.630Z,956.34
2019-01-14T07:01:26.558Z,956.46
2019-01-14T07:02:36.582Z,956.39
2019-01-14T07:03:46.518Z,956.59
2019-01-14T07:04:56.439Z,956.51
2019-01-14T07:06:06.363Z,956.56
2019-01-14T07:07:16.280Z,957.26
2019-01-14T07:08:26.344Z,956.88
2019-01-14T07:09:36.258Z,956.83
2019-01-14T07:10:46.167Z,956.88
2019-01-14T07:11:57.352Z,957.07
2019-01-14T07:13:07.363Z,956.8
2019-01-14T07:14:17.424Z,956.3
2019-01-14T07:15:27.338Z,956.78
2019-01-14T07:16:37.248Z,956.89
2019-01-14T07:17:48.178Z,956.72
2019-01-14T07:18:58.261Z,956.72
2019-01-14T07:20:08.286Z,956.4
2019-01-14T07:21:18.206Z,956.65
2019-01-14T07:22:27.865Z,956.9
2019-01-14T07:23:37.779Z,956.42
2019-01-14T07:24:47.694Z,956.49
2019-01-14T07:25:57.669Z,956.68
2019-01-14T07:27:07.601Z,956.91
2019-01-14T07:28:17.517Z,956.56
2019-01-14T07:29:27.239Z,956.52
2019-01-14T07:30:37.151Z,956.63
2019-01-14T07:31:47.162Z,956.59
2019-01-14T07:32:57.083Z,956.53
2019-01-14T07:34:07.013Z,956.75
2019-01-14T07:35:17.064Z,956.86
2019-01-14T07:36:27.135Z,956.75
2019-01-14T07:37:37.265Z,956.99
2019-01-14T07:38:47.312Z,956.88
2019-01-14T07:39:57.374Z,956.91
2019-01-14T07:41:08.307Z,956.89
2019-01-14T07:42:18.358Z,956.73
2019-01-14T07:43:28.542Z,956.79
2019-01-14T07:44:38.591Z,956.85
2019-01-14T07:45:48.635Z,956.91
2019-01-14T07:46:59.631Z,956.64
2019-01-14T07:48:09.684Z,957
2019-01-14T07:49:19.738Z,956.89
2019-01-14T07:50:29.785Z,956.98
2019-01-14T07:51:41.418Z,956.91
2019-01-14T07:52:51.622Z,956.9
2019-01-14T07:54:01.673Z,956.99
2019-01-14T07:55:11.779Z,957.06
2019-01-14T07:56:21.820Z,957.37
2019-01-14T07:57:31.862Z,956.79
2019-01-14T07:58:41.905Z,957.22
2019-01-14T07:59:51.950Z,957.1
2019-01-14T08:01:02.173Z,956.9
2019-01-14T08:02:12.229Z,957.47
2019-01-14T08:03:22.298Z,957.4
2019-01-14T08:04:32.454Z,958.02
2019-01-14T08:05:42.505Z,957.53
2019-01-14T08:06:52.602Z,957.6
2019-01-14T08:08:02.648Z,957.51
2019-01-14T08:09:19.165Z,958.37
2019-01-14T08:10:29.217Z,957.8
2019-01-14T08:11:39.257Z,957.86
2019-01-14T08:12:49.403Z,957.76
2019-01-14T08:13:59.458Z,957.91
2019-01-14T08:15:09.505Z,958
2019-01-14T08:16:19.567Z,957.79
2019-01-14T08:17:29.617Z,958.01
2019-01-14T08:18:39.766Z,958.32
2019-01-14T08:19:49.821Z,958.23
2019-01-14T08:20:59.869Z,958.73
2019-01-14T08:22:09.914Z,958.5
2019-01-14T08:23:19.963Z,958.47
2019-01-14T08:24:29.848Z,958.34
2019-01-14T08:25:39.639Z,958.54
2019-01-14T08:26:49.693Z,958.53
2019-01-14T08:27:59.741Z,958.42
2019-01-14T08:29:09.785Z,958.51
2019-01-14T08:30:19.935Z,958.7
2019-01-14T08:31:29.999Z,958.61
2019-01-14T08:32:40.050Z,958.61
2019-01-14T08:33:50.092Z,958.52
2019-01-14T08:35:00.242Z,958.67
2019-01-14T08:36:10.398Z,958.56
2019-01-14T08:37:20.440Z,958.5
2019-01-14T08:38:30.489Z,958.4
2019-01-14T08:39:40.535Z,958.3
2019-01-14T08:40:50.579Z,958.35
2019-01-14T08:42:00.623Z,958.49
2019-01-14T08:43:10.663Z,958.61
2019-01-14T08:44:20.709Z,958.57
2019-01-14T08:45:30.754Z,958.61
2019-01-14T08:46:40.810Z,958.38
2019-01-14T08:47:50.861Z,958.68
2019-01-14T08:49:00.923Z,958.58
2019-01-14T08:50:10.969Z,958.65
2019-01-14T08:51:21.015Z,958.49
2019-01-14T08:52:31.069Z,958.48
2019-01-14T08:53:40.957Z,958.6
2019-01-14T08:54:51.005Z,958.59
2019-01-14T08:56:01.048Z,958.83
2019-01-14T08:57:11.095Z,958.59
2019-01-14T08:58:21.140Z,958.68
2019-01-14T08:59:31.335Z,958.89
2019-01-14T09:00:41.378Z,958.67
2019-01-14T09:01:51.428Z,958.8
2019-01-14T09:03:01.474Z,958.81
2019-01-14T09:04:11.522Z,958.91
2019-01-14T09:05:32.998Z,958.85
2019-01-14T09:06:43.044Z,958.94
2019-01-14T09:07:53.092Z,959.08
2019-01-14T09:09:03.139Z,959.22
2019-01-14T09:10:13.181Z,959.26
2019-01-14T09:11:23.280Z,959.16
2019-01-14T09:12:33.330Z,959.19
2019-01-14T09:13:43.376Z,959.27
2019-01-14T09:14:53.422Z,959.18
2019-01-14T09:16:03.468Z,959.24
2019-01-14T09:17:13.669Z,959.23
2019-01-14T09:18:23.729Z,959.09
2019-01-14T09:19:33.778Z,959.03
2019-01-14T09:20:43.849Z,959.05
2019-01-14T09:21:53.928Z,959.13
2019-01-14T09:23:04.078Z,959.08
2019-01-14T09:24:14.127Z,959.07
2019-01-14T09:25:24.176Z,959.31
2019-01-14T09:26:34.226Z,959.12
2019-01-14T09:27:45.516Z,959.22
2019-01-14T09:28:55.712Z,959.18
2019-01-14T09:30:05.814Z,959.32
2019-01-14T09:31:15.874Z,959.28
2019-01-14T09:32:25.913Z,959.28
2019-01-14T09:33:35.957Z,959.4
2019-01-14T09:34:46.115Z,959.11
2019-01-14T09:35:56.162Z,959.34
2019-01-14T09:37:06.202Z,959.21
2019-01-14T09:38:16.246Z,959.36
2019-01-14T09:39:26.296Z,959.12
2019-01-14T09:40:36.394Z,959.16
2019-01-14T09:41:46.441Z,959.38
2019-01-14T09:42:56.489Z,959.31
2019-01-14T09:44:06.532Z,959.4
2019-01-14T09:45:16.584Z,959.35
2019-01-14T09:46:26.794Z,959.33
2019-01-14T09:47:36.838Z,959.32
2019-01-14T09:48:46.925Z,959.63
2019-01-14T09:49:56.971Z,959.27
2019-01-14T09:51:07.019Z,959.21
2019-01-14T09:52:17.213Z,959.22
2019-01-14T09:53:28.895Z,959.56
2019-01-14T09:54:38.952Z,959.34
2019-01-14T09:55:49.000Z,959.33
2019-01-14T09:56:59.102Z,959.31
2019-01-14T09:58:09.206Z,959.29
2019-01-14T09:59:19.248Z,959.39
2019-01-14T10:00:29.307Z,959.22
2019-01-14T10:01:39.359Z,959.22
2019-01-14T10:02:49.407Z,959.29
2019-01-14T10:04:03.368Z,959.33
2019-01-14T10:05:13.421Z,959.25
2019-01-14T10:06:23.484Z,959.3
2019-01-14T10:07:33.651Z,959.31
2019-01-14T10:08:43.711Z,959.4
2019-01-14T10:09:53.917Z,959.39
2019-01-14T10:11:03.961Z,959.5
2019-01-14T10:12:14.008Z,959.39
2019-01-14T10:13:23.804Z,959.3
2019-01-14T10:14:33.855Z,959.42
2019-01-14T10:15:44.110Z,959.3
2019-01-14T10:16:54.161Z,959.59
2019-01-14T10:18:04.209Z,959.67
2019-01-14T10:19:14.259Z,959.38
2019-01-14T10:20:24.309Z,959.51
2019-01-14T10:21:34.457Z,959.41
2019-01-14T10:22:44.500Z,959.41
2019-01-14T10:23:54.550Z,959.57
2019-01-14T10:25:04.596Z,959.57
2019-01-14T10:26:16.167Z,959.51
2019-01-14T10:27:26.271Z,959.53
2019-01-14T10:28:36.320Z,959.48
2019-01-14T10:29:46.395Z,959.75
2019-01-14T10:30:56.440Z,959.62
2019-01-14T10:32:06.485Z,959.78
2019-01-14T10:33:16.537Z,959.75
2019-01-14T10:34:26.602Z,959.69
2019-01-14T10:35:36.645Z,959.82
2019-01-14T10:36:46.692Z,959.87
2019-01-14T10:37:56.738Z,959.81
2019-01-14T10:39:06.783Z,960.05
2019-01-14T10:40:17.862Z,960.05
2019-01-14T10:41:27.968Z,960.04
2019-01-14T10:42:38.021Z,959.89
2019-01-14T10:43:48.077Z,959.98
2019-01-14T10:44:58.232Z,959.87
2019-01-14T10:46:08.022Z,960.58
2019-01-14T10:47:18.075Z,959.97
2019-01-14T10:48:28.141Z,960.28
2019-01-14T10:49:37.931Z,960.14
2019-01-14T10:50:47.979Z,960
2019-01-14T10:51:58.028Z,960.29
2019-01-14T10:53:08.081Z,960.23
2019-01-14T10:54:18.137Z,960.05
2019-01-14T10:55:28.193Z,960.11
2019-01-14T10:56:38.245Z,960.04
2019-01-14T10:57:51.862Z,960.2
2019-01-14T10:59:01.919Z,960.05
2019-01-14T11:00:11.966Z,960.21
2019-01-14T11:01:22.020Z,960.27
2019-01-14T11:02:32.122Z,960.44
2019-01-14T11:03:42.167Z,960.17
2019-01-14T11:04:52.225Z,960.17
2019-01-14T11:06:02.274Z,960.33
2019-01-14T11:07:12.335Z,960.59
2019-01-14T11:08:22.219Z,960.36
2019-01-14T11:09:32.265Z,960.7
2019-01-14T11:10:45.141Z,960.7
2019-01-14T11:11:55.200Z,960.54
2019-01-14T11:13:05.269Z,960.82
2019-01-14T11:14:15.319Z,960.55
2019-01-14T11:15:25.369Z,960.5
2019-01-14T11:16:35.480Z,960.6
2019-01-14T11:17:45.539Z,960.52
2019-01-14T11:18:55.590Z,960.5
2019-01-14T11:20:05.688Z,960.53
2019-01-14T11:21:15.745Z,960.55
2019-01-14T11:22:25.796Z,960.53
2019-01-14T11:23:35.847Z,960.59
2019-01-14T11:24:45.900Z,960.66
2019-01-14T11:25:56.043Z,960.52
2019-01-14T11:27:06.097Z,960.49
2019-01-14T11:28:16.148Z,960.78
2019-01-14T11:29:26.193Z,960.59
2019-01-14T11:30:36.242Z,960.54
2019-01-14T11:31:46.079Z,960.39
2019-01-14T11:32:56.127Z,960.54
2019-01-14T11:34:06.177Z,960.58
2019-01-14T11:35:16.221Z,960.62
2019-01-14T11:36:26.278Z,960.57
2019-01-14T11:37:36.715Z,960.6
2019-01-14T11:38:46.768Z,960.66
2019-01-14T11:39:56.816Z,960.7
2019-01-14T11:41:06.863Z,960.78
2019-01-14T11:42:17.511Z,960.76
2019-01-14T11:43:27.695Z,960.78
2019-01-14T11:44:37.754Z,960.76
2019-01-14T11:45:47.542Z,960.87
2019-01-14T11:46:57.588Z,960.84
2019-01-14T11:48:07.634Z,960.79
2019-01-14T11:49:17.879Z,960.83
2019-01-14T11:50:29.392Z,960.91
2019-01-14T11:51:39.439Z,960.83
2019-01-14T11:52:49.489Z,960.89
2019-01-14T11:53:59.537Z,960.87
2019-01-14T11:55:09.733Z,960.9
2019-01-14T11:56:19.789Z,960.87
2019-01-14T11:57:29.835Z,961.01
2019-01-14T11:58:39.881Z,961.02
2019-01-14T11:59:49.930Z,961.16
2019-01-14T12:01:00.030Z,961.16
2019-01-14T12:02:10.121Z,961.47
2019-01-14T12:03:20.175Z,961.26
2019-01-14T12:04:30.264Z,961.26
2019-01-14T12:05:40.321Z,961.13
2019-01-14T12:06:50.469Z,961.24
2019-01-14T12:08:00.522Z,961.28
2019-01-14T12:09:12.244Z,961.4
2019-01-14T12:10:22.491Z,961.25
2019-01-14T12:11:34.509Z,961.28
2019-01-14T12:12:44.709Z,961.22
2019-01-14T12:13:54.754Z,961.24
2019-01-14T12:15:04.806Z,961.02
2019-01-14T12:16:14.867Z,961.22
2019-01-14T12:17:24.920Z,961.18
2019-01-14T12:18:35.023Z,961.24
2019-01-14T12:19:45.080Z,961.04
2019-01-14T12:20:55.129Z,961.19
2019-01-14T12:22:05.186Z,961.14
2019-01-14T12:23:14.969Z,961.22
2019-01-14T12:24:24.853Z,961.29
2019-01-14T12:25:34.904Z,961.18
2019-01-14T12:26:44.953Z,961.21
2019-01-14T12:27:55.020Z,961.06
2019-01-14T12:29:05.072Z,961.25
2019-01-14T12:30:15.127Z,961.06
2019-01-14T12:31:25.180Z,960.97
2019-01-14T12:32:35.229Z,960.99
2019-01-14T12:33:45.278Z,961.03
2019-01-14T12:34:55.325Z,961.04
2019-01-14T12:36:05.594Z,961.08
2019-01-14T12:37:15.650Z,960.99
2019-01-14T12:38:25.696Z,961.04
2019-01-14T12:39:35.763Z,961.07
2019-01-14T12:40:45.812Z,961.08
2019-01-14T12:41:55.965Z,961.1
2019-01-14T12:43:06.017Z,961.15
2019-01-14T12:44:16.065Z,961.04
2019-01-14T12:45:26.109Z,961.05
2019-01-14T12:46:36.155Z,961.16
2019-01-14T12:47:47.413Z,961.13
2019-01-14T12:48:57.463Z,961.15
2019-01-14T12:50:07.513Z,961.14
2019-01-14T12:51:17.702Z,961.33
2019-01-14T12:52:27.754Z,961.02
2019-01-14T12:53:37.850Z,961.1
2019-01-14T12:54:47.902Z,961.16
2019-01-14T12:55:57.953Z,961.21
2019-01-14T12:57:08.031Z,961.31
2019-01-14T12:58:18.093Z,961.28
2019-01-14T12:59:27.983Z,961.27
2019-01-14T13:00:38.040Z,961.26
2019-01-14T13:01:48.089Z,961.27
2019-01-14T13:02:58.617Z,961.34
2019-01-14T13:04:08.809Z,961.25
2019-01-14T13:05:18.975Z,961.13
2019-01-14T13:06:29.026Z,961.22
2019-01-14T13:07:39.136Z,961.27
2019-01-14T13:08:49.197Z,961.37
2019-01-14T13:09:59.245Z,961.52
2019-01-14T13:11:09.359Z,961.34
2019-01-14T13:12:23.829Z,961.38
2019-01-14T13:13:33.886Z,961.53
2019-01-14T13:14:43.939Z,961.44
2019-01-14T13:15:54.005Z,961.38
2019-01-14T13:17:04.123Z,961.29
2019-01-14T13:18:14.177Z,961.51
2019-01-14T13:19:24.232Z,961.59
2019-01-14T13:20:34.283Z,961.56
2019-01-14T13:21:44.340Z,961.63
2019-01-14T13:22:54.504Z,961.76
2019-01-14T13:24:04.557Z,961.79
2019-01-14T13:25:14.353Z,961.77
2019-01-14T13:26:24.434Z,961.78
2019-01-14T13:27:34.484Z,961.66
2019-01-14T13:28:44.641Z,961.78
2019-01-14T13:29:54.691Z,961.77
2019-01-14T13:31:04.805Z,961.77
2019-01-14T13:32:14.854Z,961.66
2019-01-14T13:33:24.905Z,961.83
2019-01-14T13:34:35.103Z,961.96
2019-01-14T13:35:50.130Z,961.88
2019-01-14T13:37:00.186Z,961.98
2019-01-14T13:38:10.235Z,962.01
2019-01-14T13:39:20.286Z,962.02
2019-01-14T13:40:36.783Z,961.6
2019-01-14T13:41:46.831Z,962.17
2019-01-14T13:42:56.884Z,961.98
2019-01-14T13:44:06.942Z,962.08
2019-01-14T13:45:17.042Z,962.17
2019-01-14T13:46:27.099Z,962.06
2019-01-14T13:47:37.149Z,962.07
2019-01-14T13:48:47.198Z,962.02
2019-01-14T13:49:56.987Z,962.07
2019-01-14T13:51:07.186Z,961.97
2019-01-14T13:52:17.232Z,961.99
2019-01-14T13:53:28.796Z,961.99
2019-01-14T13:54:38.844Z,962.06
2019-01-14T13:55:48.921Z,962.12
2019-01-14T13:57:04.901Z,962.12
2019-01-14T13:58:14.947Z,962.03
2019-01-14T13:59:24.997Z,962.21
2019-01-14T14:00:35.059Z,962.17
2019-01-14T14:01:45.158Z,962.28
2019-01-14T14:02:55.257Z,962.2
2019-01-14T14:04:05.308Z,962.29
2019-01-14T14:05:15.359Z,962.26
2019-01-14T14:06:25.418Z,962.27
2019-01-14T14:07:35.470Z,962.29
2019-01-14T14:08:45.569Z,962.39
2019-01-14T14:09:55.622Z,962.33
2019-01-14T14:11:05.670Z,962.42
2019-01-14T14:12:15.717Z,962.31
2019-01-14T14:13:25.770Z,962.38
2019-01-14T14:14:35.872Z,962.38
2019-01-14T14:15:45.678Z,962.63
2019-01-14T14:16:55.726Z,962.87
2019-01-14T14:18:05.787Z,962.57
2019-01-14T14:19:15.845Z,962.83
2019-01-14T14:20:26.041Z,962.92
2019-01-14T14:21:36.099Z,962.65
2019-01-14T14:22:46.144Z,962.66
2019-01-14T14:23:56.197Z,962.76
2019-01-14T14:25:06.252Z,962.7
2019-01-14T14:26:16.412Z,962.77
2019-01-14T14:27:26.458Z,962.83
2019-01-14T14:28:36.534Z,962.81
2019-01-14T14:29:47.232Z,962.96
2019-01-14T14:30:57.693Z,962.98
2019-01-14T14:32:07.970Z,962.8
2019-01-14T14:33:18.467Z,962.95
2019-01-14T14:34:28.521Z,962.99
2019-01-14T14:35:38.566Z,962.92
2019-01-14T14:36:48.624Z,962.88
2019-01-14T14:38:01.080Z,962.88